createdAt,value
2018-12-31T00:00:34.895Z,6.50
2018-12-31T00:03:03.403Z,7.43
2018-12-31T00:05:31.776Z,9.37
2018-12-31T00:08:00.190Z,9.03
2018-12-31T00:10:28.419Z,7.80
2018-12-31T00:12:56.629Z,7.10
2018-12-31T00:15:25.311Z,5.73
2018-12-31T00:17:53.767Z,6.13
2018-12-31T00:20:22.181Z,5.67
2018-12-31T00:22:50.466Z,5.60
2018-12-31T00:25:18.704Z,5.57
2018-12-31T00:27:47.068Z,6.50
2018-12-31T00:30:15.388Z,10.33
2018-12-31T00:32:43.707Z,18.50
2018-12-31T00:35:11.919Z,9.23
2018-12-31T00:37:40.362Z,18.20
2018-12-31T00:40:09.200Z,9.73
2018-12-31T00:42:37.580Z,7.93
2018-12-31T00:45:05.779Z,9.17
2018-12-31T00:47:34.233Z,6.13
2018-12-31T00:50:02.695Z,10.13
2018-12-31T00:52:30.898Z,12.17
2018-12-31T00:54:59.145Z,11.30
2018-12-31T00:57:27.394Z,30.20
2018-12-31T00:59:55.671Z,20.63
2018-12-31T01:02:25.791Z,12.13
2018-12-31T01:04:54.358Z,12.23
2018-12-31T01:07:22.996Z,13.77
2018-12-31T01:09:51.282Z,15.53
2018-12-31T01:12:20.152Z,10.57
2018-12-31T01:14:48.531Z,10.17
2018-12-31T01:17:16.777Z,10.13
2018-12-31T01:19:44.982Z,6.67
2018-12-31T01:22:13.364Z,5.67
2018-12-31T01:24:41.679Z,7.80
2018-12-31T01:27:10.203Z,5.83
2018-12-31T01:29:38.596Z,5.50
2018-12-31T01:32:07.120Z,6.20
2018-12-31T01:34:35.320Z,6.40
2018-12-31T01:37:03.530Z,6.30
2018-12-31T01:39:32.341Z,8.37
2018-12-31T01:42:00.592Z,10.67
2018-12-31T01:44:29.075Z,8.77
2018-12-31T01:46:57.311Z,5.80
2018-12-31T01:49:25.837Z,5.67
2018-12-31T01:51:54.368Z,5.13
2018-12-31T01:54:22.977Z,6.77
2018-12-31T01:56:51.200Z,6.10
2018-12-31T01:59:19.497Z,5.07
2018-12-31T02:01:47.813Z,5.93
2018-12-31T02:04:17.322Z,4.20
2018-12-31T02:06:45.751Z,5.23
2018-12-31T02:09:13.991Z,4.47
2018-12-31T02:11:42.272Z,5.87
2018-12-31T02:14:10.503Z,5.60
2018-12-31T02:16:38.785Z,4.43
2018-12-31T02:19:06.999Z,33.23
2018-12-31T02:21:35.214Z,9.10
2018-12-31T02:24:03.455Z,5.97
2018-12-31T02:26:31.831Z,9.60
2018-12-31T02:29:00.480Z,5.60
2018-12-31T02:31:28.781Z,7.03
2018-12-31T02:33:56.968Z,8.60
2018-12-31T02:36:25.402Z,9.93
2018-12-31T02:38:53.631Z,7.27
2018-12-31T02:41:21.839Z,9.03
2018-12-31T02:43:50.051Z,8.43
2018-12-31T02:46:18.287Z,7.60
2018-12-31T02:48:46.614Z,6.70
2018-12-31T02:51:14.952Z,6.10
2018-12-31T02:53:43.199Z,4.47
2018-12-31T02:56:11.544Z,4.53
2018-12-31T02:58:40.158Z,5.90
2018-12-31T03:01:08.656Z,6.97
2018-12-31T03:03:38.631Z,21.13
2018-12-31T03:06:08.244Z,6.80
2018-12-31T03:08:36.545Z,9.83
2018-12-31T03:11:04.759Z,5.70
2018-12-31T03:13:32.966Z,3.60
2018-12-31T03:16:01.512Z,2.60
2018-12-31T03:18:29.753Z,2.30
2018-12-31T03:20:57.961Z,2.03
2018-12-31T03:23:26.381Z,2.13
2018-12-31T03:25:54.594Z,2.20
2018-12-31T03:28:22.895Z,3.33
2018-12-31T03:30:51.141Z,2.37
2018-12-31T03:33:19.341Z,5.20
2018-12-31T03:35:47.536Z,3.73
2018-12-31T03:38:16.016Z,5.63
2018-12-31T03:40:44.290Z,3.57
2018-12-31T03:43:12.895Z,2.90
2018-12-31T03:45:41.271Z,2.77
2018-12-31T03:48:09.472Z,2.80
2018-12-31T03:50:38.082Z,3.00
2018-12-31T03:53:06.582Z,2.77
2018-12-31T03:55:35.016Z,3.30
2018-12-31T03:58:04.960Z,4.03
2018-12-31T04:00:33.347Z,2.90
2018-12-31T04:03:01.716Z,4.60
2018-12-31T04:05:29.957Z,10.17
2018-12-31T04:07:59.188Z,9.90
2018-12-31T04:10:27.654Z,5.50
2018-12-31T04:12:55.859Z,7.23
2018-12-31T04:15:24.092Z,4.93
2018-12-31T04:17:54.187Z,4.80
2018-12-31T04:20:23.081Z,3.10
2018-12-31T04:22:51.320Z,4.07
2018-12-31T04:25:19.696Z,10.33
2018-12-31T04:27:48.507Z,11.83
2018-12-31T04:30:17.476Z,12.10
2018-12-31T04:32:45.882Z,10.87
2018-12-31T04:35:14.319Z,4.27
2018-12-31T04:37:42.603Z,3.97
2018-12-31T04:40:10.880Z,2.63
2018-12-31T04:42:39.212Z,2.53
2018-12-31T04:45:07.741Z,3.57
2018-12-31T04:47:36.020Z,2.30
2018-12-31T04:50:04.589Z,2.20
2018-12-31T04:52:32.820Z,2.60
2018-12-31T04:55:01.014Z,2.90
2018-12-31T04:57:29.495Z,3.60
2018-12-31T04:59:57.723Z,4.00
2018-12-31T05:02:25.924Z,4.73
2018-12-31T05:04:54.390Z,5.07
2018-12-31T05:07:22.623Z,8.20
2018-12-31T05:09:52.111Z,3.50
2018-12-31T05:12:20.307Z,3.27
2018-12-31T05:14:48.552Z,2.93
2018-12-31T05:17:16.903Z,4.30
2018-12-31T05:19:45.331Z,3.20
2018-12-31T05:22:13.723Z,4.10
2018-12-31T05:24:42.101Z,2.90
2018-12-31T05:27:10.564Z,3.20
2018-12-31T05:29:38.962Z,3.37
2018-12-31T05:32:07.302Z,3.23
2018-12-31T05:34:36.164Z,3.70
2018-12-31T05:37:04.415Z,14.60
2018-12-31T05:39:32.662Z,6.37
2018-12-31T05:42:00.863Z,4.40
2018-12-31T05:44:29.631Z,2.50
2018-12-31T05:46:57.836Z,5.37
2018-12-31T05:49:26.293Z,3.60
2018-12-31T05:51:54.662Z,3.10
2018-12-31T05:54:23.186Z,3.63
2018-12-31T05:56:51.655Z,3.43
2018-12-31T05:59:20.267Z,3.50
2018-12-31T06:01:48.555Z,2.60
2018-12-31T06:04:16.895Z,3.07
2018-12-31T06:06:45.139Z,2.47
2018-12-31T06:09:13.338Z,3.47
2018-12-31T06:11:42.841Z,3.73
2018-12-31T06:14:11.359Z,2.20
2018-12-31T06:16:39.767Z,4.23
2018-12-31T06:19:08.078Z,10.40
2018-12-31T06:21:36.309Z,4.60
2018-12-31T06:24:04.591Z,3.83
2018-12-31T06:26:32.932Z,6.10
2018-12-31T06:29:01.384Z,4.20
2018-12-31T06:31:30.086Z,4.90
2018-12-31T06:33:58.286Z,4.73
2018-12-31T06:36:26.777Z,4.83
2018-12-31T06:38:54.972Z,5.40
2018-12-31T06:41:23.441Z,4.23
2018-12-31T06:43:51.936Z,4.77
2018-12-31T06:46:20.314Z,9.27
2018-12-31T06:48:48.612Z,7.67
2018-12-31T06:51:19.240Z,9.40
2018-12-31T06:53:47.516Z,8.57
2018-12-31T06:56:16.019Z,5.83
2018-12-31T06:58:44.271Z,7.17
2018-12-31T07:01:12.474Z,6.07
2018-12-31T07:03:40.796Z,5.90
2018-12-31T07:06:09.027Z,5.33
2018-12-31T07:08:37.373Z,4.87
2018-12-31T07:11:05.572Z,6.30
2018-12-31T07:13:34.766Z,10.73
2018-12-31T07:16:03.341Z,13.07
2018-12-31T07:18:31.784Z,13.47
2018-12-31T07:21:00.036Z,21.13
2018-12-31T07:23:28.396Z,13.03
2018-12-31T07:25:56.600Z,9.90
2018-12-31T07:28:25.383Z,6.70
2018-12-31T07:30:53.583Z,7.50
2018-12-31T07:33:22.010Z,8.07
2018-12-31T07:35:50.908Z,6.37
2018-12-31T07:38:19.275Z,6.87
2018-12-31T07:40:47.543Z,6.63
2018-12-31T07:43:16.293Z,6.73
2018-12-31T07:45:44.483Z,6.37
2018-12-31T07:48:13.122Z,5.73
2018-12-31T07:50:41.595Z,5.60
2018-12-31T07:53:10.665Z,7.03
2018-12-31T07:55:38.956Z,8.23
2018-12-31T07:58:07.197Z,8.03
2018-12-31T08:00:35.447Z,7.80
2018-12-31T08:03:03.919Z,10.40
2018-12-31T08:05:32.950Z,11.03
2018-12-31T08:08:01.375Z,6.67
2018-12-31T08:10:29.669Z,5.53
2018-12-31T08:12:58.159Z,7.13
2018-12-31T08:15:28.461Z,10.10
2018-12-31T08:17:57.197Z,7.30
2018-12-31T08:20:25.716Z,6.13
2018-12-31T08:22:54.106Z,6.33
2018-12-31T08:25:23.215Z,5.80
2018-12-31T08:27:53.968Z,5.90
2018-12-31T08:30:22.271Z,7.37
2018-12-31T08:32:51.121Z,6.10
2018-12-31T08:35:20.455Z,6.13
2018-12-31T08:37:49.458Z,5.10
2018-12-31T08:40:18.309Z,5.10
2018-12-31T08:42:46.548Z,8.80
2018-12-31T08:45:15.102Z,8.03
2018-12-31T08:47:43.423Z,6.57
2018-12-31T08:50:14.157Z,6.33
2018-12-31T08:52:45.991Z,8.10
2018-12-31T08:55:15.620Z,7.47
2018-12-31T08:57:44.860Z,9.33
2018-12-31T09:00:13.242Z,12.93
2018-12-31T09:02:43.010Z,11.67
2018-12-31T09:05:11.526Z,20.30
2018-12-31T09:07:39.739Z,22.43
2018-12-31T09:10:08.470Z,23.60
2018-12-31T09:12:36.795Z,31.07
2018-12-31T09:15:05.509Z,12.23
2018-12-31T09:17:35.267Z,17.80
2018-12-31T09:20:04.231Z,13.83
2018-12-31T09:22:32.656Z,16.53
2018-12-31T09:25:01.047Z,13.43
2018-12-31T09:27:29.829Z,11.53
2018-12-31T09:29:58.141Z,28.83
2018-12-31T09:32:26.379Z,11.37
2018-12-31T09:34:54.988Z,12.83
2018-12-31T09:37:23.809Z,9.73
2018-12-31T09:39:52.555Z,12.27
2018-12-31T09:42:21.122Z,13.33
2018-12-31T09:44:49.494Z,11.17
2018-12-31T09:47:18.139Z,10.77
2018-12-31T09:49:47.088Z,13.37
2018-12-31T09:52:15.573Z,19.90
2018-12-31T09:54:44.258Z,7.73
2018-12-31T09:57:13.122Z,14.10
2018-12-31T09:59:41.820Z,14.80
2018-12-31T10:02:10.187Z,10.97
2018-12-31T10:04:38.864Z,9.83
2018-12-31T10:07:07.473Z,11.63
2018-12-31T10:09:36.978Z,21.13
2018-12-31T10:12:05.439Z,15.07
2018-12-31T10:14:33.961Z,12.70
2018-12-31T10:17:02.583Z,13.00
2018-12-31T10:19:32.124Z,14.27
2018-12-31T10:22:01.023Z,10.60
2018-12-31T10:24:29.696Z,10.00
2018-12-31T10:26:58.161Z,16.63
2018-12-31T10:29:26.470Z,26.67
2018-12-31T10:31:57.801Z,32.50
2018-12-31T10:34:26.220Z,21.03
2018-12-31T10:36:55.333Z,70.37
2018-12-31T10:39:23.831Z,183.07
2018-12-31T10:41:52.554Z,21.97
2018-12-31T10:44:21.427Z,39.23
2018-12-31T10:46:50.117Z,13.90
2018-12-31T10:49:19.005Z,25.70
2018-12-31T10:51:47.829Z,60.90
2018-12-31T10:54:16.253Z,22.10
2018-12-31T10:56:45.258Z,38.93
2018-12-31T10:59:13.625Z,20.40
2018-12-31T11:01:45.671Z,18.67
2018-12-31T11:04:13.480Z,15.73
2018-12-31T11:06:43.974Z,24.13
2018-12-31T11:09:13.013Z,22.97
2018-12-31T11:11:43.108Z,20.70
2018-12-31T11:14:12.011Z,14.97
2018-12-31T11:16:41.420Z,19.17
2018-12-31T11:19:10.382Z,14.53
2018-12-31T11:21:40.528Z,13.73
2018-12-31T11:24:09.284Z,15.00
2018-12-31T11:26:38.824Z,15.80
2018-12-31T11:29:08.067Z,13.07
2018-12-31T11:31:36.810Z,11.23
2018-12-31T11:34:06.073Z,13.00
2018-12-31T11:36:35.026Z,14.40
2018-12-31T11:39:04.517Z,11.80
2018-12-31T11:41:33.232Z,12.67
2018-12-31T11:44:02.560Z,12.13
2018-12-31T11:46:31.311Z,18.57
2018-12-31T11:48:59.686Z,22.57
2018-12-31T11:51:28.778Z,20.10
2018-12-31T11:53:58.091Z,14.90
2018-12-31T11:56:27.277Z,14.03
2018-12-31T11:58:56.028Z,13.40
2018-12-31T12:01:26.155Z,21.83
2018-12-31T12:03:55.467Z,17.20
2018-12-31T12:06:24.864Z,10.83
2018-12-31T12:08:53.862Z,14.93
2018-12-31T12:11:27.492Z,11.30
2018-12-31T12:13:56.775Z,15.63
2018-12-31T12:16:27.450Z,33.87
2018-12-31T12:18:56.838Z,34.70
2018-12-31T12:21:26.819Z,19.47
2018-12-31T12:23:58.111Z,16.90
2018-12-31T12:26:27.412Z,44.47
2018-12-31T12:28:56.786Z,15.57
2018-12-31T12:31:27.600Z,19.87
2018-12-31T12:33:59.066Z,21.07
2018-12-31T12:36:27.676Z,21.23
2018-12-31T12:38:58.491Z,16.43
2018-12-31T12:41:29.158Z,62.37
2018-12-31T12:43:58.768Z,45.83
2018-12-31T12:46:28.364Z,30.83
2018-12-31T12:48:58.972Z,19.00
2018-12-31T12:51:30.316Z,17.13
2018-12-31T12:54:01.745Z,18.03
2018-12-31T12:56:31.027Z,18.57
2018-12-31T12:59:00.580Z,22.47
2018-12-31T13:01:34.390Z,19.10
2018-12-31T13:04:06.531Z,22.73
2018-12-31T13:06:37.855Z,25.80
2018-12-31T13:09:10.435Z,24.33
2018-12-31T13:14:28.760Z,39.20
2018-12-31T13:16:59.817Z,13.27
2018-12-31T13:19:36.951Z,37.20
2018-12-31T13:22:09.399Z,57.20
2018-12-31T13:24:41.604Z,28.70
2018-12-31T13:27:10.574Z,18.70
2018-12-31T13:29:39.158Z,31.90
2018-12-31T13:32:08.861Z,25.20
2018-12-31T13:34:39.400Z,23.33
2018-12-31T13:37:10.422Z,19.73
2018-12-31T13:39:42.934Z,52.50
2018-12-31T13:42:11.603Z,43.20
2018-12-31T13:44:42.013Z,38.67
2018-12-31T13:47:12.127Z,23.70
2018-12-31T13:49:47.090Z,33.60
2018-12-31T13:52:14.200Z,30.97
2018-12-31T13:54:46.598Z,37.00
2018-12-31T13:57:19.733Z,21.17
2018-12-31T13:59:49.672Z,22.77
2018-12-31T14:02:18.481Z,14.63
2018-12-31T14:04:52.108Z,35.47
2018-12-31T14:07:22.533Z,24.97
2018-12-31T14:09:57.043Z,20.50
2018-12-31T14:12:28.073Z,19.43
2018-12-31T14:14:58.730Z,23.40
2018-12-31T14:17:30.110Z,21.63
2018-12-31T14:20:00.496Z,19.50
2018-12-31T14:22:31.388Z,15.60
2018-12-31T14:25:02.689Z,21.13
2018-12-31T14:27:33.537Z,20.60
2018-12-31T14:30:03.679Z,89.57
2018-12-31T14:32:33.850Z,40.53
2018-12-31T14:35:05.230Z,23.90
2018-12-31T14:37:40.142Z,22.57
2018-12-31T14:40:09.650Z,21.43
2018-12-31T14:42:41.075Z,36.93
2018-12-31T14:45:12.788Z,24.50
2018-12-31T14:47:42.656Z,16.63
2018-12-31T14:50:13.328Z,16.67
2018-12-31T14:52:44.001Z,21.00
2018-12-31T14:55:16.448Z,24.97
2018-12-31T14:57:50.470Z,20.37
2018-12-31T15:00:21.357Z,22.53
2018-12-31T15:02:52.738Z,30.53
2018-12-31T15:05:32.152Z,25.23
2018-12-31T15:08:03.241Z,24.87
2018-12-31T15:10:34.458Z,20.00
2018-12-31T15:13:04.822Z,23.40
2018-12-31T15:15:42.755Z,29.07
2018-12-31T15:18:14.525Z,26.53
2018-12-31T15:20:46.173Z,25.30
2018-12-31T15:23:21.560Z,26.53
2018-12-31T15:25:53.296Z,37.17
2018-12-31T15:28:22.875Z,35.63
2018-12-31T15:30:54.438Z,102.33
2018-12-31T15:33:25.144Z,55.07
2018-12-31T15:35:56.349Z,98.63
2018-12-31T15:38:25.535Z,41.70
2018-12-31T15:40:57.823Z,32.83
2018-12-31T15:43:28.682Z,35.10
2018-12-31T15:46:00.302Z,74.83
2018-12-31T15:48:32.567Z,63.13
2018-12-31T15:51:04.198Z,31.13
2018-12-31T15:53:37.459Z,35.30
2018-12-31T15:56:09.444Z,69.90
2018-12-31T15:58:39.821Z,114.07
2018-12-31T16:01:10.563Z,44.53
2018-12-31T16:03:42.646Z,52.67
2018-12-31T16:06:11.578Z,75.47
2018-12-31T16:08:42.245Z,52.20
2018-12-31T16:11:12.310Z,48.00
2018-12-31T16:13:41.415Z,27.07
2018-12-31T16:16:15.863Z,31.00
2018-12-31T16:18:45.626Z,29.87
2018-12-31T16:21:15.800Z,45.83
2018-12-31T16:23:45.961Z,57.27
2018-12-31T16:26:16.382Z,45.17
2018-12-31T16:28:46.868Z,25.07
2018-12-31T16:31:16.609Z,40.57
2018-12-31T16:33:46.839Z,63.67
2018-12-31T16:36:16.302Z,31.47
2018-12-31T16:38:46.267Z,33.03
2018-12-31T16:41:17.150Z,19.80
2018-12-31T16:43:46.235Z,35.80
2018-12-31T16:46:14.989Z,53.17
2018-12-31T16:48:45.896Z,79.00
2018-12-31T16:51:17.596Z,72.30
2018-12-31T16:53:48.860Z,149.63
2018-12-31T16:56:17.388Z,215.53
2018-12-31T16:58:47.690Z,187.43
2018-12-31T17:01:17.029Z,299.17
2018-12-31T17:03:46.298Z,135.00
2018-12-31T17:06:15.232Z,244.33
2018-12-31T17:08:44.227Z,89.43
2018-12-31T17:11:13.100Z,92.30
2018-12-31T17:13:42.310Z,235.70
2018-12-31T17:16:11.353Z,91.20
2018-12-31T17:18:41.429Z,97.50
2018-12-31T17:21:09.875Z,127.73
2018-12-31T17:23:40.274Z,61.20
2018-12-31T17:26:08.641Z,36.23
2018-12-31T17:28:37.044Z,32.60
2018-12-31T17:31:05.847Z,35.83
2018-12-31T17:33:35.346Z,38.53
2018-12-31T17:36:04.004Z,54.77
2018-12-31T17:38:32.745Z,54.67
2018-12-31T17:41:01.618Z,41.60
2018-12-31T17:43:30.392Z,31.87
2018-12-31T17:45:58.826Z,32.77
2018-12-31T17:48:27.746Z,31.80
2018-12-31T17:50:56.212Z,39.40
2018-12-31T17:53:27.807Z,39.13
2018-12-31T17:55:56.384Z,32.60
2018-12-31T17:58:25.059Z,32.80
2018-12-31T18:00:53.485Z,35.93
2018-12-31T18:03:21.972Z,29.47
2018-12-31T18:05:50.794Z,39.53
2018-12-31T18:08:19.397Z,30.63
2018-12-31T18:10:48.200Z,25.73
2018-12-31T18:13:16.744Z,30.40
2018-12-31T18:15:45.184Z,50.07
2018-12-31T18:18:15.055Z,51.60
2018-12-31T18:20:45.093Z,41.50
2018-12-31T18:23:14.019Z,58.43
2018-12-31T18:25:42.498Z,64.40
2018-12-31T18:28:10.904Z,80.80
2018-12-31T18:30:40.343Z,82.97
2018-12-31T18:33:09.467Z,86.77
2018-12-31T18:35:39.622Z,51.60
2018-12-31T18:38:08.655Z,75.00
2018-12-31T18:40:38.011Z,45.07
2018-12-31T18:43:07.272Z,36.70
2018-12-31T18:45:36.297Z,40.40
2018-12-31T18:48:05.063Z,51.03
2018-12-31T18:50:33.868Z,53.73
2018-12-31T18:53:02.551Z,66.60
2018-12-31T18:55:31.815Z,54.63
2018-12-31T18:58:00.229Z,48.33
2018-12-31T19:00:28.649Z,45.57
2018-12-31T19:02:57.787Z,44.60
2018-12-31T19:05:26.246Z,34.00
2018-12-31T19:07:54.738Z,30.77
2018-12-31T19:10:23.271Z,34.10
2018-12-31T19:12:52.293Z,32.27
2018-12-31T19:15:21.028Z,34.10
2018-12-31T19:17:49.645Z,27.20
2018-12-31T19:20:20.413Z,30.97
2018-12-31T19:22:49.429Z,31.33
2018-12-31T19:25:18.231Z,30.50
2018-12-31T19:27:47.007Z,33.67
2018-12-31T19:30:15.517Z,33.03
2018-12-31T19:32:44.249Z,27.70
2018-12-31T19:35:13.311Z,29.40
2018-12-31T19:37:42.356Z,45.40
2018-12-31T19:40:10.756Z,43.90
2018-12-31T19:42:39.666Z,52.07
2018-12-31T19:45:08.339Z,57.10
2018-12-31T19:47:37.585Z,82.40
2018-12-31T19:50:06.029Z,66.53
2018-12-31T19:52:36.559Z,107.73
2018-12-31T19:55:07.022Z,109.47
2018-12-31T19:57:35.833Z,114.33
2018-12-31T20:00:08.699Z,78.23
2018-12-31T20:02:37.512Z,62.33
2018-12-31T20:05:11.324Z,71.97
2018-12-31T20:07:40.100Z,66.83
2018-12-31T20:10:08.820Z,77.30
2018-12-31T20:12:37.501Z,38.47
2018-12-31T20:15:06.799Z,49.10
2018-12-31T20:17:35.221Z,36.10
2018-12-31T20:20:04.377Z,29.03
2018-12-31T20:22:33.160Z,27.33
2018-12-31T20:25:01.860Z,23.57
2018-12-31T20:27:30.246Z,25.70
2018-12-31T20:29:58.751Z,21.30
2018-12-31T20:32:27.387Z,18.50
2018-12-31T20:34:56.334Z,24.43
2018-12-31T20:37:25.173Z,24.37
2018-12-31T20:39:55.081Z,25.50
2018-12-31T20:42:23.771Z,30.27
2018-12-31T20:44:52.528Z,34.47
2018-12-31T20:47:21.372Z,30.30
2018-12-31T20:49:49.869Z,29.53
2018-12-31T20:52:19.185Z,24.37
2018-12-31T20:54:48.510Z,26.40
2018-12-31T20:57:19.156Z,25.53
2018-12-31T20:59:47.487Z,21.90
2018-12-31T21:02:16.574Z,20.87
2018-12-31T21:04:45.631Z,24.17
2018-12-31T21:07:14.141Z,24.47
2018-12-31T21:09:42.814Z,25.73
2018-12-31T21:12:11.381Z,31.33
2018-12-31T21:14:40.675Z,26.50
2018-12-31T21:17:10.066Z,28.23
2018-12-31T21:19:38.803Z,27.17
2018-12-31T21:22:07.315Z,27.07
2018-12-31T21:24:35.974Z,26.43
2018-12-31T21:27:04.636Z,27.77
2018-12-31T21:29:33.368Z,26.10
2018-12-31T21:32:02.165Z,28.73
2018-12-31T21:34:31.144Z,38.27
2018-12-31T21:36:59.847Z,30.00
2018-12-31T21:39:28.638Z,29.43
2018-12-31T21:41:58.155Z,27.10
2018-12-31T21:44:26.686Z,25.60
2018-12-31T21:46:55.344Z,32.97
2018-12-31T21:49:24.275Z,38.00
2018-12-31T21:51:53.019Z,31.13
2018-12-31T21:54:21.819Z,32.60
2018-12-31T21:56:50.427Z,35.93
2018-12-31T21:59:19.364Z,33.67
2018-12-31T22:01:48.099Z,41.43
2018-12-31T22:04:16.609Z,35.77
2018-12-31T22:06:45.301Z,41.57
2018-12-31T22:09:14.834Z,36.77
2018-12-31T22:11:43.793Z,29.60
2018-12-31T22:14:12.283Z,27.87
2018-12-31T22:16:40.956Z,31.17
2018-12-31T22:19:09.607Z,36.67
2018-12-31T22:21:38.039Z,47.67
2018-12-31T22:24:06.453Z,48.67
2018-12-31T22:26:35.501Z,41.23
2018-12-31T22:29:04.507Z,40.67
2018-12-31T22:31:33.224Z,46.43
2018-12-31T22:34:01.961Z,29.20
2018-12-31T22:36:30.769Z,30.57
2018-12-31T22:38:59.169Z,32.10
2018-12-31T22:41:27.798Z,30.43
2018-12-31T22:43:57.546Z,21.00
2018-12-31T22:46:26.132Z,19.30
2018-12-31T22:48:55.025Z,17.33
2018-12-31T22:51:23.872Z,13.17
2018-12-31T22:53:52.689Z,14.50
2018-12-31T22:56:21.079Z,20.00
2018-12-31T22:58:49.886Z,18.50
2018-12-31T23:01:18.467Z,20.70
2018-12-31T23:03:47.431Z,16.50
2018-12-31T23:06:15.994Z,13.40
2018-12-31T23:08:44.758Z,15.40
2018-12-31T23:11:13.511Z,23.93
2018-12-31T23:13:42.013Z,24.83
2018-12-31T23:16:10.984Z,70.60
2018-12-31T23:18:39.945Z,24.13
2018-12-31T23:21:09.553Z,21.93
2018-12-31T23:23:38.189Z,19.47
2018-12-31T23:26:07.193Z,18.93
2018-12-31T23:28:36.041Z,22.97
2018-12-31T23:31:04.961Z,34.57
2018-12-31T23:33:34.261Z,29.37
2018-12-31T23:36:02.897Z,36.80
2018-12-31T23:38:31.859Z,43.07
2018-12-31T23:41:00.481Z,44.47
2018-12-31T23:43:29.470Z,45.80
2018-12-31T23:45:59.109Z,47.70
2018-12-31T23:48:27.637Z,50.13
2018-12-31T23:50:56.442Z,47.53
2018-12-31T23:53:25.374Z,37.83
2018-12-31T23:55:53.881Z,34.40
2018-12-31T23:58:22.839Z,37.03
